Airfield :
LOGIN :

Register | Disclaimer

   EN    FR    IT 

 










Legend :    VFR   Marginal VFR   IFR   Intensive IFR   Very Intensive IFR
Visi :
Ceiling :
>= 8 km
>= 3000ft
5 to 8 km
1000 to 3000 ft
1500m to 5 km
500 to 1000 ft
800 to 1500m
200 to 500 ft
< 800m
< 200 ft
Symbols :   Thunderstorms  Fog  Heavy snow  Heavy precipitations  Wind > 20 kt
SIGMETs :     Misc.  Thunderstorms  Icing  Turbulence  Mountain Waves  Volcanic Ashes






- Airport Elevation : 1411 ft
- IATA code : SZG


LOWS - Salzburg

CURRENT METAR :
  • 171120Z VRB03KT 9999 FEW010 SCT016 BKN030 06/03 Q1008 TEMPO BKN014

EXPIRED METARs :
  • 171050Z 14005KT 110V170 9999 -SHRA FEW008 SCT014 BKN024 05/02 Q1008 TEMPO BKN014
  • 171020Z 15007KT 9999 FEW006 SCT012 BKN022 04/03 Q1008 TEMPO BKN012
  • 170950Z 13003KT 9999 FEW006 SCT010 BKN020 04/02 Q1008 TEMPO BKN010
  • 170920Z AUTO 15004KT 110V190 9999 SCT004 BKN018 04/02 Q1009 NOSIG
  • 170850Z AUTO 11003KT 080V170 9999 FEW004 BKN008 03/02 Q1008 TEMPO BKN015
  • 170820Z AUTO 14003KT 110V170 9999 -RADZ FEW003 SCT013 BKN015 01/01 Q1008 TEMPO BKN014
  • 170750Z AUTO 13002KT 7000 -RA FEW003 SCT006 BKN014 00/00 Q1008 RERA TEMPO 2000 SN BKN005
  • 170720Z AUTO 12002KT 6000 RASN FEW003 SCT004 BKN012 00/00 Q1008 RERA TEMPO 2000 SN BKN005
  • 170650Z AUTO 15003KT 2000 1100N R15/P1500D R33/P1500D RASN SCT005 BKN011 00/00 Q1008 TEMPO 5000 -RASN BKN015

TAF TAF LOWS
Valid from the 17 at 12:00 until the 18 at 12:00 UTC


171115Z 1712/1812 31006KT 9999 SCT025 BKN050 TX08/1714Z TN02/1804Z
TEMPO 1712/1719 30015G25KT 4500 SHRA SCT020CB BKN035
PROB30 1712/1718 2500 TSRASN BKN008 BKN020CB
TEMPO 1719/1808 -SHRA
PROB30 1719/1724 3500 SHRASN BKN012
TEMPO 1808/1812 31010G20KT 4500 SHRA SCT012 BKN025



MET'MAP, your aeronautical weather chart ! - Copyright ORBIFLY December 2007 - Disclaimer

ORBIFLY MET'MAP TEAM :

Programming & Development : Alexandra Zaïnal
Original concept : Baudouin d'Aumeries
Technical & hardware support : Manuel Goepfert
Assistance : Marc-Olivier Méhu




SOURCES & CREDITS :

   NOAA